Time;durP1;ratioP1;P1;durP2;ratioP2;P2;SDS_P1;SDS_P2;PMS_P1;PMS_P2;Temp;Humidity;BMP_temperature;BMP_pressure;BME280_temperature;BME280_humidity;BME280_pressure;Samples;Min_cycle;Max_cycle;Signal;HPM_P1;HPM_P2
2023/10/01 00:02:16;;;;;;;;;;;;;;;-144.99;100.00;52399.19;5051275;28;19997;-66
2023/10/01 00:04:42;;;;;;;;;;;;;;;-144.99;100.00;52444.03;5048229;28;19929;-67
2023/10/01 00:07:09;;;;;;;;;;;;;;;-144.99;100.00;52417.53;5051449;28;20012;-67
2023/10/01 00:09:37;;;;;;;;;;;;;;;-144.99;100.00;52407.31;5049265;28;19960;-67
2023/10/01 00:12:05;;;;;;;;;;;;;;;-144.99;100.00;52415.47;5043438;28;20403;-67
2023/10/01 00:14:32;;;;;;;;;;;;;;;-144.99;100.00;52378.78;5056953;28;19984;-70
2023/10/01 00:16:58;;;;;;;;;;;;;;;-144.99;100.00;52413.44;5047275;28;19974;-70
2023/10/01 00:19:25;;;;;;;;;;;;;;;-144.99;100.00;52403.25;5043798;28;20072;-69
2023/10/01 00:21:52;;;;;;;;;;;;;;;-144.99;100.00;52460.31;5039713;28;19946;-69
2023/10/01 00:24:19;;;;;;;;;;;;;;;-144.99;100.00;52419.56;5035358;28;20034;-69
2023/10/01 00:26:45;;;;;;;;;;;;;;;-144.99;100.00;52399.19;5035687;28;20366;-70
2023/10/01 00:29:13;;;;;;;;;;;;;;;-144.99;100.00;52427.72;5036097;28;19963;-70
2023/10/01 00:31:40;;;;;;;;;;;;;;;-144.99;100.00;52407.31;5037900;28;19945;-70
2023/10/01 00:34:07;;;;;;;;;;;;;;;-144.99;100.00;52407.31;5037202;28;19940;-70
2023/10/01 00:36:35;;;;;;;;;;;;;;;-144.99;100.00;52403.25;5044831;28;20104;-70
2023/10/01 00:39:03;;;;;;;;;;;;;;;-144.99;100.00;52407.31;5040767;28;20405;-68
2023/10/01 00:41:30;;;;;;;;;;;;;;;-144.99;100.00;52382.88;5039725;28;20473;-69
2023/10/01 00:44:00;;;;;;;;;;;;;;;-144.99;100.00;52415.47;4695132;28;10000264;-68
2023/10/01 00:46:28;;;;;;;;;;;;;;;-144.99;100.00;52386.94;5046825;28;19998;-68
2023/10/01 00:48:55;;;;;;;;;;;;;;;-144.99;100.00;52403.25;5042878;28;20412;-68
2023/10/01 00:51:21;;;;;;;;;;;;;;;-144.99;100.00;52391.03;5038365;28;19943;-68
2023/10/01 00:53:49;;;;;;;;;;;;;;;-144.99;100.00;52378.78;5034032;28;19968;-68
2023/10/01 00:56:16;;;;;;;;;;;;;;;-144.99;100.00;52415.47;5034331;28;19945;-64
2023/10/01 00:58:43;;;;;;;;;;;;;;;-144.99;100.00;52407.31;5033232;28;19994;-63
2023/10/01 01:01:12;;;;;;;;;;;;;;;-144.99;100.00;52403.25;5032527;28;19957;-63
2023/10/01 01:03:40;;;;;;;;;;;;;;;-144.99;100.00;52391.03;5034867;28;19960;-63
2023/10/01 01:06:17;;;;;;;;;;;;;;;-144.99;100.00;52399.19;5034633;28;19992;-62
2023/10/01 01:08:52;;;;;;;;;;;;;;;-144.99;100.00;52435.88;5034244;28;20034;-64
2023/10/01 01:11:21;;;;;;;;;;;;;;;-144.99;100.00;52366.56;5048510;28;20421;-62
2023/10/01 01:13:49;;;;;;;;;;;;;;;-144.99;100.00;52435.88;5045212;28;19938;-62
2023/10/01 01:16:19;;;;;;;;;;;;;;;-144.99;100.00;52431.78;5044530;28;19946;-62
2023/10/01 01:18:51;;;;;;;;;;;;;;;-144.99;100.00;52395.09;5036938;28;20000;-62
2023/10/01 01:21:18;;;;;;;;;;;;;;;-144.99;100.00;52399.19;5036670;28;19940;-63
2023/10/01 01:23:46;;;;;;;;;;;;;;;-144.99;100.00;52395.09;5033341;28;19936;-62
2023/10/01 01:26:13;;;;;;;;;;;;;;;-144.99;100.00;52431.78;5033465;28;19947;-62
2023/10/01 01:28:41;;;;;;;;;;;;;;;-144.99;100.00;52397.13;5033500;28;19956;-62
2023/10/01 01:31:10;;;;;;;;;;;;;;;-144.99;100.00;52391.03;5034473;28;20054;-61
2023/10/01 01:33:44;;;;;;;;;;;;;;;-144.99;100.00;52391.03;5031216;28;19931;-62
2023/10/01 01:36:12;;;;;;;;;;;;;;;-144.99;100.00;52403.25;5037865;28;19925;-61
2023/10/01 01:38:43;;;;;;;;;;;;;;;-144.99;100.00;52452.16;5033952;28;19933;-64
2023/10/01 01:41:12;;;;;;;;;;;;;;;-144.99;100.00;52378.78;5039273;28;20054;-61
2023/10/01 01:43:39;;;;;;;;;;;;;;;-144.99;100.00;52407.31;5038858;28;19984;-64
2023/10/01 01:46:08;;;;;;;;;;;;;;;-144.99;100.00;52427.72;5029329;28;19963;-67
2023/10/01 01:48:37;;;;;;;;;;;;;;;-144.99;100.00;52399.19;5029149;28;19939;-67
2023/10/01 01:51:05;;;;;;;;;;;;;;;-144.99;100.00;52419.56;5027685;28;20111;-65
2023/10/01 01:53:35;;;;;;;;;;;;;;;-144.99;100.00;52427.72;5027734;28;20415;-65
2023/10/01 01:56:04;;;;;;;;;;;;;;;-144.99;100.00;52431.78;5029008;28;19967;-65
2023/10/01 01:58:32;;;;;;;;;;;;;;;-144.99;100.00;52439.94;5030241;28;19972;-67
2023/10/01 02:01:08;;;;;;;;;;;;;;;-144.99;100.00;52411.41;5029177;28;19971;-65
2023/10/01 02:03:37;;;;;;;;;;;;;;;-144.99;100.00;52448.09;5036364;28;20312;-65
2023/10/01 02:06:05;;;;;;;;;;;;;;;-144.99;100.00;52399.19;5042660;28;20321;-65
2023/10/01 02:08:44;;;;;;;;;;;;;;;-144.99;100.00;52439.94;5046272;28;20041;-65
2023/10/01 02:11:11;;;;;;;;;;;;;;;-144.99;100.00;52386.94;5047164;28;20340;-63
2023/10/01 02:13:40;;;;;;;;;;;;;;;-144.99;100.00;52452.16;5046786;28;19949;-64
2023/10/01 02:16:34;;;;;;;;;;;;;;;-144.99;100.00;52382.88;5048071;28;20003;-66
2023/10/01 02:19:14;;;;;;;;;;;;;;;-144.99;100.00;52464.41;5037028;28;20001;-66
2023/10/01 02:21:48;;;;;;;;;;;;;;;-144.99;100.00;52423.63;5042791;23;20009;-73
2023/10/01 02:24:19;;;;;;;;;;;;;;;-144.99;100.00;52399.19;5031557;28;19956;-71
2023/10/01 02:26:46;;;;;;;;;;;;;;;-144.99;100.00;52415.47;5033472;28;19968;-71
2023/10/01 02:29:14;;;;;;;;;;;;;;;-144.99;100.00;52415.47;5023213;28;19937;-74
2023/10/01 02:31:47;;;;;;;;;;;;;;;-144.99;100.00;52423.63;5035269;28;19942;-70
2023/10/01 02:34:14;;;;;;;;;;;;;;;-144.99;100.00;52403.25;5038265;28;20325;-70
2023/10/01 02:36:42;;;;;;;;;;;;;;;-144.99;100.00;52415.47;5012058;28;20473;-71
2023/10/01 02:39:11;;;;;;;;;;;;;;;-144.99;100.00;52407.31;5012860;28;19925;-71
2023/10/01 02:41:38;;;;;;;;;;;;;;;-144.99;100.00;52407.31;5022385;28;19958;-71
2023/10/01 02:44:05;;;;;;;;;;;;;;;-144.99;100.00;52409.38;5016921;28;20044;-71
2023/10/01 02:46:31;;;;;;;;;;;;;;;-144.99;100.00;52411.41;5020509;28;19945;-71
2023/10/01 02:48:59;;;;;;;;;;;;;;;-144.99;100.00;52391.03;5019323;28;19945;-71
2023/10/01 02:51:32;;;;;;;;;;;;;;;-144.99;100.00;52382.88;5017164;28;19956;-71
2023/10/01 02:54:04;;;;;;;;;;;;;;;-144.99;100.00;52419.56;5013456;28;20289;-71
2023/10/01 02:56:32;;;;;;;;;;;;;;;-144.99;100.00;52407.31;5018635;28;19949;-71
2023/10/01 02:59:07;;;;;;;;;;;;;;;-144.99;100.00;52366.56;5015084;28;19963;-71
2023/10/01 03:01:34;;;;;;;;;;;;;;;-144.99;100.00;52388.97;5015398;28;20544;-71
2023/10/01 03:04:05;;;;;;;;;;;;;;;-144.99;100.00;52423.63;5013817;28;19950;-71
2023/10/01 03:06:33;;;;;;;;;;;;;;;-144.99;100.00;52378.78;5012459;28;19952;-72
2023/10/01 03:09:04;;;;;;;;;;;;;;;-144.99;100.00;52419.56;5019079;28;20005;-72
2023/10/01 03:11:40;;;;;;;;;;;;;;;-144.99;100.00;52407.31;5030117;28;20734;-72
2023/10/01 03:14:11;;;;;;;;;;;;;;;-144.99;100.00;52378.78;5017869;28;20038;-72
2023/10/01 03:16:43;;;;;;;;;;;;;;;-144.99;100.00;52382.88;5032852;28;19943;-72
2023/10/01 03:19:24;;;;;;;;;;;;;;;-144.99;100.00;52413.44;5018338;28;20066;-72
2023/10/01 03:24:39;;;;;;;;;;;;;;;-144.99;100.00;52382.88;5016777;28;20564;-71
2023/10/01 03:27:19;;;;;;;;;;;;;;;-144.99;100.00;52403.25;5014240;28;19947;-72
2023/10/01 03:29:48;;;;;;;;;;;;;;;-144.99;100.00;52431.78;5015965;28;19968;-71
2023/10/01 03:32:28;;;;;;;;;;;;;;;-144.99;100.00;52382.88;5016477;28;19937;-71
2023/10/01 03:34:55;;;;;;;;;;;;;;;-144.99;100.00;52419.56;5018071;28;19943;-71
2023/10/01 03:37:27;;;;;;;;;;;;;;;-144.99;100.00;52419.56;5016757;28;19969;-71
2023/10/01 03:40:03;;;;;;;;;;;;;;;-144.99;100.00;52403.25;5017638;28;19956;-71
2023/10/01 03:42:33;;;;;;;;;;;;;;;-144.99;100.00;52403.25;5012634;28;20491;-71
2023/10/01 03:45:26;;;;;;;;;;;;;;;-144.99;100.00;52380.84;5026346;28;19954;-71
2023/10/01 03:47:57;;;;;;;;;;;;;;;-144.99;100.00;52439.94;5044383;28;19923;-71
2023/10/01 03:50:24;;;;;;;;;;;;;;;-144.99;100.00;52427.72;5028113;28;19925;-71
2023/10/01 03:52:54;;;;;;;;;;;;;;;-144.99;100.00;52399.19;5013506;28;19969;-71
2023/10/01 03:55:26;;;;;;;;;;;;;;;-144.99;100.00;52388.97;5014038;28;19951;-71
2023/10/01 03:57:56;;;;;;;;;;;;;;;-144.99;100.00;52407.31;5015598;28;20476;-72
2023/10/01 04:00:32;;;;;;;;;;;;;;;-144.99;100.00;52342.09;5011095;28;20060;-71
2023/10/01 04:03:01;;;;;;;;;;;;;;;-144.99;100.00;52368.59;5014222;28;19964;-72
2023/10/01 04:05:33;;;;;;;;;;;;;;;-144.99;100.00;52407.31;5018506;28;19962;-72
2023/10/01 04:08:06;;;;;;;;;;;;;;;-144.99;100.00;52409.38;5027627;28;20019;-72
2023/10/01 04:10:34;;;;;;;;;;;;;;;-144.99;100.00;52435.88;5028261;28;20002;-72
2023/10/01 04:13:12;;;;;;;;;;;;;;;-144.99;100.00;52427.72;5026219;28;19962;-72
2023/10/01 04:15:41;;;;;;;;;;;;;;;-144.99;100.00;52399.19;5028012;28;20031;-72
2023/10/01 04:23:40;;;;;;;;;;;;;;;-144.99;100.00;52415.47;5018718;28;19953;-73
2023/10/01 04:26:06;;;;;;;;;;;;;;;-144.99;100.00;52382.88;5040939;28;20036;-73
2023/10/01 04:28:35;;;;;;;;;;;;;;;-144.99;100.00;52382.88;5030145;28;19945;-72
2023/10/01 04:31:03;;;;;;;;;;;;;;;-144.99;100.00;52448.09;5021604;28;21035;-73
2023/10/01 04:33:31;;;;;;;;;;;;;;;-144.99;100.00;52378.78;5018060;28;20033;-73
2023/10/01 04:35:58;;;;;;;;;;;;;;;-144.99;100.00;52378.78;5022001;28;20000;-73
2023/10/01 04:38:29;;;;;;;;;;;;;;;-144.99;100.00;52419.56;5020090;28;19978;-73
2023/10/01 04:40:55;;;;;;;;;;;;;;;-144.99;100.00;52382.88;5019318;28;20029;-73
2023/10/01 04:43:25;;;;;;;;;;;;;;;-144.99;100.00;52386.94;5017252;28;19935;-73
2023/10/01 04:45:52;;;;;;;;;;;;;;;-144.99;100.00;52415.47;5022625;28;19944;-74
2023/10/01 04:48:22;;;;;;;;;;;;;;;-144.99;100.00;52391.03;5010380;28;20324;-73
2023/10/01 04:50:51;;;;;;;;;;;;;;;-144.99;100.00;52431.78;5012318;28;19950;-73
2023/10/01 04:53:20;;;;;;;;;;;;;;;-144.99;100.00;52395.09;5010158;28;20150;-73
2023/10/01 04:55:57;;;;;;;;;;;;;;;-144.99;100.00;52431.78;5012606;28;20019;-73
2023/10/01 04:58:24;;;;;;;;;;;;;;;-144.99;100.00;52382.88;5014236;28;19941;-73
2023/10/01 05:00:51;;;;;;;;;;;;;;;-144.99;100.00;52386.94;5011883;28;19968;-74
2023/10/01 05:03:17;;;;;;;;;;;;;;;-144.99;100.00;52407.31;5021388;28;19970;-72
2023/10/01 05:05:44;;;;;;;;;;;;;;;-144.99;100.00;52395.09;5018966;28;19950;-72
2023/10/01 05:08:13;;;;;;;;;;;;;;;-144.99;100.00;52423.63;5012831;28;20358;-71
2023/10/01 05:10:51;;;;;;;;;;;;;;;-144.99;100.00;52409.38;5016416;28;20469;-71
2023/10/01 05:13:20;;;;;;;;;;;;;;;-144.99;100.00;52407.31;5012274;28;19946;-72
2023/10/01 05:15:49;;;;;;;;;;;;;;;-144.99;100.00;52448.09;5019390;28;20032;-71
2023/10/01 05:18:16;;;;;;;;;;;;;;;-144.99;100.00;52439.94;5017640;28;20457;-72
2023/10/01 05:20:42;;;;;;;;;;;;;;;-144.99;100.00;52395.09;5018691;28;20054;-72
2023/10/01 05:23:09;;;;;;;;;;;;;;;-144.99;100.00;52444.03;5019511;28;19937;-72
2023/10/01 05:25:36;;;;;;;;;;;;;;;-144.99;100.00;52395.09;5015778;28;19951;-73
2023/10/01 05:28:03;;;;;;;;;;;;;;;-144.99;100.00;52439.94;5011811;28;19949;-73
2023/10/01 05:30:35;;;;;;;;;;;;;;;-144.99;100.00;52415.47;5012198;28;19943;-73
2023/10/01 05:33:05;;;;;;;;;;;;;;;-144.99;100.00;52448.09;5009360;28;19946;-73
2023/10/01 05:35:34;;;;;;;;;;;;;;;-144.99;100.00;52382.88;5011002;28;19966;-73
2023/10/01 05:38:04;;;;;;;;;;;;;;;-144.99;100.00;52415.47;5012748;28;19982;-74
2023/10/01 05:40:34;;;;;;;;;;;;;;;-144.99;100.00;52407.31;5031130;28;20013;-73
2023/10/01 05:43:12;;;;;;;;;;;;;;;-144.99;100.00;52393.06;5035489;28;20161;-73
2023/10/01 05:45:41;;;;;;;;;;;;;;;-144.99;100.00;52391.03;5016760;28;20098;-73
2023/10/01 05:48:10;;;;;;;;;;;;;;;-144.99;100.00;52368.59;5011408;28;19965;-72
2023/10/01 05:50:38;;;;;;;;;;;;;;;-144.99;100.00;52386.94;5011810;28;19949;-72
2023/10/01 05:53:05;;;;;;;;;;;;;;;-144.99;100.00;52382.88;5010315;28;19945;-73
2023/10/01 05:55:32;;;;;;;;;;;;;;;-144.99;100.00;52378.78;5010801;28;19954;-71
2023/10/01 05:58:12;;;;;;;;;;;;;;;-144.99;100.00;52423.63;5010003;28;19947;-72
2023/10/01 06:00:45;;;;;;;;;;;;;;;-144.99;100.00;52382.88;5013996;28;19936;-72
2023/10/01 06:03:11;;;;;;;;;;;;;;;-144.99;100.00;52382.88;5015084;28;20022;-74
2023/10/01 06:05:46;;;;;;;;;;;;;;;-144.99;100.00;52407.31;5010120;28;19998;-74
2023/10/01 06:08:15;;;;;;;;;;;;;;;-144.99;100.00;52407.31;5013166;28;20029;-73
2023/10/01 06:10:47;;;;;;;;;;;;;;;-144.99;100.00;52399.19;5011475;28;19941;-73
2023/10/01 06:13:14;;;;;;;;;;;;;;;-144.99;100.00;52403.25;5009301;28;20040;-72
2023/10/01 06:15:42;;;;;;;;;;;;;;;-144.99;100.00;52407.31;5022381;28;20469;-73
2023/10/01 06:18:08;;;;;;;;;;;;;;;-144.99;100.00;52382.88;5032464;28;19968;-72
2023/10/01 06:20:38;;;;;;;;;;;;;;;-144.99;100.00;52415.47;5027882;28;19957;-72
2023/10/01 06:23:07;;;;;;;;;;;;;;;-144.99;100.00;52407.31;5013564;28;21559;-72
2023/10/01 06:25:40;;;;;;;;;;;;;;;-144.99;100.00;52417.53;5014538;28;19952;-72
2023/10/01 06:28:09;;;;;;;;;;;;;;;-144.99;100.00;52391.03;5013684;28;19939;-73
2023/10/01 06:30:37;;;;;;;;;;;;;;;-144.99;100.00;52413.44;5013071;28;20012;-73
2023/10/01 06:33:09;;;;;;;;;;;;;;;-144.99;100.00;52417.53;5012109;28;19943;-74
2023/10/01 06:35:37;;;;;;;;;;;;;;;-144.99;100.00;52407.31;5013149;28;20030;-74
2023/10/01 06:38:04;;;;;;;;;;;;;;;-144.99;100.00;52419.56;5013279;28;20359;-74
2023/10/01 06:40:31;;;;;;;;;;;;;;;-144.99;100.00;52419.56;5011946;28;19960;-73
2023/10/01 06:42:58;;;;;;;;;;;;;;;-144.99;100.00;52374.72;5012477;28;20439;-74
2023/10/01 06:45:38;;;;;;;;;;;;;;;-144.99;100.00;52391.03;5018693;28;20566;-74
2023/10/01 06:48:08;;;;;;;;;;;;;;;-144.99;100.00;52407.31;5027343;28;20431;-72
2023/10/01 06:50:36;;;;;;;;;;;;;;;-144.99;100.00;52393.06;5016544;28;19949;-73
2023/10/01 06:53:03;;;;;;;;;;;;;;;-144.99;100.00;52372.69;5012962;28;19947;-73
2023/10/01 06:55:32;;;;;;;;;;;;;;;-144.99;100.00;52403.25;5019156;28;19982;-73
2023/10/01 06:58:00;;;;;;;;;;;;;;;-144.99;100.00;52397.13;5027002;28;20537;-73
2023/10/01 07:00:33;;;;;;;;;;;;;;;-144.99;100.00;52427.72;5015298;28;19959;-73
2023/10/01 07:03:16;;;;;;;;;;;;;;;-144.99;100.00;52391.03;5013031;28;19946;-72
2023/10/01 07:05:45;;;;;;;;;;;;;;;-144.99;100.00;52407.31;5012325;28;19949;-72
2023/10/01 07:08:12;;;;;;;;;;;;;;;-144.99;100.00;52380.84;5013227;28;19940;-73
2023/10/01 07:10:39;;;;;;;;;;;;;;;-144.99;100.00;52421.59;5011274;28;19940;-72
2023/10/01 07:13:05;;;;;;;;;;;;;;;-144.99;100.00;52431.78;5009640;28;20665;-73
2023/10/01 07:15:34;;;;;;;;;;;;;;;-144.99;100.00;52393.06;5014062;28;19945;-73
2023/10/01 07:18:13;;;;;;;;;;;;;;;-144.99;100.00;52378.78;5011614;28;19939;-73
2023/10/01 07:20:44;;;;;;;;;;;;;;;-144.99;100.00;52411.41;5023217;28;20088;-73
2023/10/01 07:23:12;;;;;;;;;;;;;;;-144.99;100.00;52399.19;5016641;28;20049;-72
2023/10/01 07:25:39;;;;;;;;;;;;;;;-144.99;100.00;52452.16;5012739;28;20402;-73
2023/10/01 07:28:06;;;;;;;;;;;;;;;-144.99;100.00;52378.78;5013522;28;19937;-73
2023/10/01 07:30:45;;;;;;;;;;;;;;;-144.99;100.00;52384.91;5010331;28;19954;-72
2023/10/01 07:33:11;;;;;;;;;;;;;;;-144.99;100.00;52419.56;5016350;28;19944;-72
2023/10/01 07:35:41;;;;;;;;;;;;;;;-144.99;100.00;52368.59;5033015;28;19949;-72
2023/10/01 07:38:07;;;;;;;;;;;;;;;-144.99;100.00;52395.09;5012373;28;20373;-72
2023/10/01 07:40:52;;;;;;;;;;;;;;;-144.99;100.00;52419.56;5015055;28;19955;-72
2023/10/01 07:43:21;;;;;;;;;;;;;;;-144.99;100.00;52399.19;5013826;28;19948;-72
2023/10/01 07:45:55;;;;;;;;;;;;;;;-144.99;100.00;52374.72;5013996;28;19942;-72
2023/10/01 07:48:23;;;;;;;;;;;;;;;-144.99;100.00;52439.94;5025233;28;19939;-71
2023/10/01 07:50:51;;;;;;;;;;;;;;;-144.99;100.00;52340.06;5027844;28;19933;-72
2023/10/01 07:53:18;;;;;;;;;;;;;;;-144.99;100.00;52366.56;5024119;28;19953;-72
2023/10/01 07:55:46;;;;;;;;;;;;;;;-144.99;100.00;52366.56;5024321;28;19947;-72
2023/10/01 07:58:25;;;;;;;;;;;;;;;-144.99;100.00;52386.94;5020052;28;19940;-72
2023/10/01 08:00:59;;;;;;;;;;;;;;;-144.99;100.00;52378.78;5036507;28;19958;-73
2023/10/01 08:03:31;;;;;;;;;;;;;;;-144.99;100.00;52362.50;5016667;28;19952;-73
2023/10/01 08:06:10;;;;;;;;;;;;;;;-144.99;100.00;52370.63;5028702;28;19967;-72
2023/10/01 08:08:37;;;;;;;;;;;;;;;-144.99;100.00;52382.88;5030142;28;19945;-72
2023/10/01 08:11:37;;;;;;;;;;;;;;;-144.99;100.00;52350.25;5045784;28;19940;-71
2023/10/01 08:13:52;;;;;;;;;;;;;;;-144.99;100.00;52382.88;5045781;28;19943;-72
2023/10/01 08:16:18;;;;;;;;;;;;;;;-144.99;100.00;52386.94;5025218;28;20391;-72
2023/10/01 08:18:46;;;;;;;;;;;;;;;-144.99;100.00;52382.88;5024165;28;20401;-72
2023/10/01 08:21:16;;;;;;;;;;;;;;;-144.99;100.00;52407.31;5037253;22;19963;-67
2023/10/01 08:23:45;;;;;;;;;;;;;;;-144.99;100.00;52378.78;5021182;28;19947;-67
2023/10/01 08:28:57;;;;;;;;;;;;;;;-144.99;100.00;52382.88;5021574;28;19965;-67
2023/10/01 08:31:43;;;;;;;;;;;;;;;-144.99;100.00;52370.63;5022550;28;19939;-66
2023/10/01 08:34:27;;;;;;;;;;;;;;;-144.99;100.00;52407.31;5020596;28;19944;-66
2023/10/01 08:36:54;;;;;;;;;;;;;;;-144.99;100.00;52374.72;5015495;28;19979;-67
2023/10/01 08:39:33;;;;;;;;;;;;;;;-144.99;100.00;52395.09;5014877;28;20039;-68
2023/10/01 08:42:08;;;;;;;;;;;;;;;-144.99;100.00;52333.94;5023264;28;19939;-66
2023/10/01 08:44:44;;;;;;;;;;;;;;;-144.99;99.84;52393.06;5019521;28;19943;-67
2023/10/01 08:47:26;;;;;;;;;;;;;;;-144.99;100.00;52354.34;5029448;28;19944;-70
2023/10/01 08:49:53;;;;;;;;;;;;;;;-144.99;99.31;52362.50;5025119;28;20352;-69
2023/10/01 08:52:25;;;;;;;;;;;;;;;-144.99;99.08;52364.53;5023423;28;20040;-70
2023/10/01 08:54:53;;;;;;;;;;;;;;;-144.99;99.03;52360.44;5027360;28;20045;-69
2023/10/01 08:57:36;;;;;;;;;;;;;;;-144.99;98.23;52370.63;5027147;28;20365;-73
2023/10/01 09:00:14;;;;;;;;;;;;;;;-144.99;97.99;52354.34;5023717;28;19960;-69
2023/10/01 09:02:41;;;;;;;;;;;;;;;-144.99;97.46;52360.44;5017585;28;19945;-73
2023/10/01 09:05:09;;;;;;;;;;;;;;;-144.99;97.18;52342.09;5015921;28;19940;-72
2023/10/01 09:07:40;;;;;;;;;;;;;;;-144.99;96.80;52380.84;5014170;28;19960;-68
2023/10/01 09:10:08;;;;;;;;;;;;;;;-144.99;96.85;52382.88;5016311;28;19962;-70
2023/10/01 09:12:45;;;;;;;;;;;;;;;-144.99;96.51;52350.25;5018931;28;20767;-69
2023/10/01 09:15:22;;;;;;;;;;;;;;;-144.99;95.83;52354.34;5016376;28;19981;-71
2023/10/01 09:17:58;;;;;;;;;;;;;;;-144.99;94.06;52333.94;5014537;28;20299;-69
2023/10/01 09:20:42;;;;;;;;;;;;;;;-144.99;93.87;52358.41;5020648;28;20394;-71
2023/10/01 09:23:08;;;;;;;;;;;;;;;-144.99;93.55;52413.44;5028254;28;20083;-73
2023/10/01 09:25:39;;;;;;;;;;;;;;;-144.99;93.37;52380.84;5017021;28;19945;-72
2023/10/01 09:28:29;;;;;;;;;;;;;;;-144.99;92.90;52336.00;5025180;28;20229;-71
2023/10/01 09:31:01;;;;;;;;;;;;;;;-144.99;92.36;52374.72;5027814;28;20494;-73
2023/10/01 09:33:29;;;;;;;;;;;;;;;-144.99;91.99;52338.03;5021812;28;19935;-71
2023/10/01 09:35:59;;;;;;;;;;;;;;;-144.99;91.37;52360.44;5027810;28;19947;-71
2023/10/01 09:38:28;;;;;;;;;;;;;;;-144.99;91.50;52358.41;5028005;28;19987;-71
2023/10/01 09:40:55;;;;;;;;;;;;;;;-144.99;91.83;52382.88;5023629;28;19962;-72
2023/10/01 09:43:27;;;;;;;;;;;;;;;-144.99;91.72;52370.63;5020388;28;19960;-71
2023/10/01 09:45:57;;;;;;;;;;;;;;;-144.99;91.66;52370.63;5025407;28;20045;-71
2023/10/01 09:48:33;;;;;;;;;;;;;;;-144.99;92.35;52354.34;5021413;28;19940;-71
2023/10/01 09:51:08;;;;;;;;;;;;;;;-144.99;92.72;52378.78;5028431;28;19991;-71
2023/10/01 09:53:45;;;;;;;;;;;;;;;-144.99;93.50;52380.84;5019336;28;20108;-71
2023/10/01 09:56:15;;;;;;;;;;;;;;;-144.99;94.35;52382.88;5024704;28;20413;-72
2023/10/01 09:58:46;;;;;;;;;;;;;;;-144.99;94.36;52354.34;5019065;28;19939;-73
2023/10/01 10:01:17;;;;;;;;;;;;;;;-144.99;94.72;52370.63;5019507;28;20340;-72
2023/10/01 10:03:44;;;;;;;;;;;;;;;-144.99;94.71;52391.03;5023413;28;20564;-71
2023/10/01 10:06:24;;;;;;;;;;;;;;;-144.99;94.27;52399.19;5022029;28;19984;-72
2023/10/01 10:09:02;;;;;;;;;;;;;;;-144.99;94.53;52342.09;5022825;28;20297;-72
2023/10/01 10:11:29;;;;;;;;;;;;;;;-144.99;94.40;52354.34;5024722;28;19967;-72
2023/10/01 10:14:00;;;;;;;;;;;;;;;-144.99;93.99;52391.03;5024765;28;19998;-72
2023/10/01 10:16:32;;;;;;;;;;;;;;;-144.99;93.45;52374.72;5021107;28;19935;-72
2023/10/01 10:19:09;;;;;;;;;;;;;;;-144.99;92.94;52362.50;5024233;28;19982;-72
2023/10/01 10:22:05;;;;;;;;;;;;;;;-144.99;93.09;52374.72;5020245;28;20017;-72
2023/10/01 10:24:32;;;;;;;;;;;;;;;-144.99;93.21;52395.09;5025279;28;20402;-70
2023/10/01 10:27:03;;;;;;;;;;;;;;;-144.99;92.91;52346.19;5024274;28;20363;-72
2023/10/01 10:29:46;;;;;;;;;;;;;;;-144.99;92.88;52338.03;5021740;28;19961;-73
2023/10/01 10:32:14;;;;;;;;;;;;;;;-144.99;91.52;52285.03;5029672;28;19944;-72
2023/10/01 10:35:04;;;;;;;;;;;;;;;-144.99;90.01;52338.03;5027857;28;19944;-72
2023/10/01 10:37:45;;;;;;;;;;;;;;;-144.99;87.83;52325.81;5028764;28;19949;-72
2023/10/01 10:40:22;;;;;;;;;;;;;;;-144.99;87.94;52321.72;5026446;28;20335;-72
2023/10/01 10:43:07;;;;;;;;;;;;;;;-144.99;87.23;52313.56;5021192;28;20020;-71
2023/10/01 10:45:42;;;;;;;;;;;;;;;-144.99;87.75;52370.63;5024345;28;19940;-72
2023/10/01 10:48:09;;;;;;;;;;;;;;;-144.99;88.61;52325.81;5030581;28;20390;-71
2023/10/01 10:50:45;;;;;;;;;;;;;;;-144.99;89.63;52342.09;5029835;28;19957;-71
2023/10/01 10:53:19;;;;;;;;;;;;;;;-144.99;90.87;52333.94;5023916;28;19937;-72
2023/10/01 10:55:55;;;;;;;;;;;;;;;-144.99;91.94;52336.00;5021979;28;19935;-72
2023/10/01 10:58:24;;;;;;;;;;;;;;;-144.99;92.41;52325.81;5029315;28;19962;-72
2023/10/01 11:00:51;;;;;;;;;;;;;;;-144.99;92.29;52350.25;5028677;28;20386;-71
2023/10/01 11:03:38;;;;;;;;;;;;;;;-144.99;92.22;52329.88;5016148;28;19936;-72
2023/10/01 11:06:18;;;;;;;;;;;;;;;-144.99;91.52;52333.94;5024974;28;20391;-72
2023/10/01 11:08:51;;;;;;;;;;;;;;;-144.99;92.28;52327.84;5031784;28;19989;-72
2023/10/01 11:11:28;;;;;;;;;;;;;;;-144.99;92.94;52350.25;5025285;28;20035;-72
2023/10/01 11:14:05;;;;;;;;;;;;;;;-144.99;93.24;52356.38;5023543;28;19925;-72
2023/10/01 11:16:37;;;;;;;;;;;;;;;-144.99;94.46;52370.63;5026301;28;20355;-73
2023/10/01 11:19:13;;;;;;;;;;;;;;;-144.99;94.87;52317.66;5032122;28;19958;-72
2023/10/01 11:21:58;;;;;;;;;;;;;;;-144.99;96.40;52336.00;5023997;28;20204;-71
2023/10/01 11:24:25;;;;;;;;;;;;;;;-144.99;97.60;52403.25;5024059;28;20286;-72
2023/10/01 11:27:17;;;;;;;;;;;;;;;-144.99;99.21;52342.09;5024353;28;19991;-72
2023/10/01 11:29:44;;;;;;;;;;;;;;;-144.99;100.00;52391.03;5020537;28;19934;-72
2023/10/01 11:32:16;;;;;;;;;;;;;;;-144.99;100.00;52382.88;5029694;28;19957;-72
2023/10/01 11:34:55;;;;;;;;;;;;;;;-144.99;100.00;52370.63;5030473;28;20304;-72
2023/10/01 11:37:27;;;;;;;;;;;;;;;-144.99;100.00;52399.19;5032874;28;19939;-72
2023/10/01 11:39:54;;;;;;;;;;;;;;;-144.99;100.00;52395.09;5032285;28;19972;-72
2023/10/01 11:42:35;;;;;;;;;;;;;;;-144.99;100.00;52419.56;5023351;28;19953;-73
2023/10/01 11:45:12;;;;;;;;;;;;;;;-144.99;100.00;52386.94;5025712;28;19939;-72
2023/10/01 11:48:04;;;;;;;;;;;;;;;-144.99;100.00;52374.72;5025048;28;20654;-71
2023/10/01 11:50:32;;;;;;;;;;;;;;;-144.99;100.00;52391.03;5026452;28;20003;-71
2023/10/01 11:53:05;;;;;;;;;;;;;;;-144.99;100.00;52356.38;5026355;28;19925;-72
2023/10/01 11:55:33;;;;;;;;;;;;;;;-144.99;100.00;52395.09;5030323;28;20028;-71
2023/10/01 11:58:00;;;;;;;;;;;;;;;-144.99;100.00;52382.88;5025128;28;20494;-71
2023/10/01 12:00:52;;;;;;;;;;;;;;;-144.99;100.00;52415.47;5031895;28;19952;-72
2023/10/01 12:03:18;;;;;;;;;;;;;;;-144.99;100.00;52382.88;5025610;28;20392;-72
2023/10/01 12:05:48;;;;;;;;;;;;;;;-144.99;100.00;52395.09;5018316;28;20309;-70
2023/10/01 12:08:18;;;;;;;;;;;;;;;-144.99;100.00;52413.44;5030221;28;19958;-71
2023/10/01 12:10:44;;;;;;;;;;;;;;;-144.99;100.00;52413.44;5031140;28;19926;-71
2023/10/01 12:13:13;;;;;;;;;;;;;;;-144.99;100.00;52376.75;5030028;28;19941;-72
2023/10/01 12:15:51;;;;;;;;;;;;;;;-144.99;100.00;52456.25;5027810;28;19946;-72
2023/10/01 12:18:17;;;;;;;;;;;;;;;-144.99;100.00;52386.94;5028167;28;19936;-71
2023/10/01 12:20:50;;;;;;;;;;;;;;;-144.99;100.00;52386.94;5023794;28;20002;-71
2023/10/01 12:23:19;;;;;;;;;;;;;;;-144.99;100.00;52380.84;5029785;28;19979;-70
2023/10/01 12:25:47;;;;;;;;;;;;;;;-144.99;100.00;52397.13;5030504;28;20320;-73
2023/10/01 12:28:18;;;;;;;;;;;;;;;-144.99;100.00;52378.78;5025372;28;20323;-72
2023/10/01 12:30:44;;;;;;;;;;;;;;;-144.99;100.00;52423.63;5021649;28;19959;-71
2023/10/01 12:33:11;;;;;;;;;;;;;;;-144.99;100.00;52378.78;5023258;28;19968;-71
2023/10/01 12:35:40;;;;;;;;;;;;;;;-144.99;100.00;52407.31;5030411;28;20341;-71
2023/10/01 12:38:05;;;;;;;;;;;;;;;-144.99;100.00;52395.09;5019212;28;20000;-70
2023/10/01 12:40:37;;;;;;;;;;;;;;;-144.99;100.00;52427.72;5022693;28;20022;-72
2023/10/01 12:43:03;;;;;;;;;;;;;;;-144.99;100.00;52393.06;5023720;28;19946;-71
2023/10/01 12:45:30;;;;;;;;;;;;;;;-144.99;100.00;52423.63;5020671;28;19959;-72
2023/10/01 12:48:07;;;;;;;;;;;;;;;-144.99;100.00;52450.13;5031490;28;20421;-71
2023/10/01 12:50:34;;;;;;;;;;;;;;;-144.99;100.00;52370.63;5026223;28;20363;-71